createdAt,value
2023-03-04T00:00:56.357Z,26.62
2023-03-04T00:03:24.246Z,25.08
2023-03-04T00:05:52.141Z,25.45
2023-03-04T00:08:19.862Z,24.60
2023-03-04T00:10:47.704Z,24.63
2023-03-04T00:13:15.477Z,23.52
2023-03-04T00:15:43.227Z,24.95
2023-03-04T00:18:10.921Z,25.52
2023-03-04T00:20:38.558Z,25.08
2023-03-04T00:23:06.229Z,23.48
2023-03-04T00:25:34.763Z,25.20
2023-03-04T00:28:02.609Z,24.42
2023-03-04T00:30:30.306Z,25.50
2023-03-04T00:32:58.119Z,26.75
2023-03-04T00:35:25.750Z,27.13
2023-03-04T00:37:53.495Z,26.10
2023-03-04T00:40:21.414Z,24.05
2023-03-04T00:42:49.101Z,25.70
2023-03-04T00:45:16.888Z,26.70
2023-03-04T00:47:44.556Z,25.10
2023-03-04T00:50:12.747Z,27.48
2023-03-04T00:52:40.438Z,25.88
2023-03-04T00:55:09.212Z,26.65
2023-03-04T00:57:36.978Z,25.60
2023-03-04T01:00:06.138Z,26.65
2023-03-04T01:02:33.848Z,26.65
2023-03-04T01:05:01.497Z,27.48
2023-03-04T01:07:29.174Z,25.83
2023-03-04T01:09:56.788Z,25.20
2023-03-04T01:12:24.462Z,25.17
2023-03-04T01:14:52.144Z,27.00
2023-03-04T01:17:19.891Z,27.25
2023-03-04T01:19:47.596Z,27.90
2023-03-04T01:22:16.315Z,26.92
2023-03-04T01:24:44.462Z,25.92
2023-03-04T01:27:12.354Z,26.00
2023-03-04T01:29:40.020Z,27.00
2023-03-04T01:32:07.795Z,26.98
2023-03-04T01:34:35.610Z,26.67
2023-03-04T01:37:03.482Z,26.10
2023-03-04T01:39:31.233Z,27.00
2023-03-04T01:41:59.351Z,27.65
2023-03-04T01:44:27.418Z,25.67
2023-03-04T01:46:56.773Z,26.83
2023-03-04T01:49:24.843Z,26.52
2023-03-04T01:51:55.694Z,26.17
2023-03-04T01:54:24.318Z,26.17
2023-03-04T01:56:53.462Z,25.58
2023-03-04T01:59:22.810Z,27.13
2023-03-04T02:02:01.588Z,25.02
2023-03-04T02:04:35.454Z,26.55
2023-03-04T02:07:04.893Z,26.62
2023-03-04T02:09:34.214Z,27.87
2023-03-04T02:12:02.444Z,26.50
2023-03-04T02:14:30.486Z,26.73
2023-03-04T02:16:58.360Z,25.02
2023-03-04T02:19:25.870Z,24.75
2023-03-04T02:21:53.704Z,26.12
2023-03-04T02:24:32.392Z,26.58
2023-03-04T02:27:00.662Z,24.92
2023-03-04T02:29:29.292Z,24.55
2023-03-04T02:31:57.297Z,26.40
2023-03-04T02:34:30.953Z,25.55
2023-03-04T02:36:58.899Z,27.30
2023-03-04T02:39:33.330Z,26.83
2023-03-04T02:42:02.775Z,27.25
2023-03-04T02:44:33.208Z,24.75
2023-03-04T02:47:01.049Z,25.27
2023-03-04T02:49:31.340Z,26.33
2023-03-04T02:52:07.151Z,26.52
2023-03-04T02:54:35.142Z,26.00
2023-03-04T02:57:05.108Z,28.38
2023-03-04T02:59:33.103Z,24.20
2023-03-04T03:02:01.020Z,25.30
2023-03-04T03:04:29.345Z,26.65
2023-03-04T03:06:57.202Z,25.20
2023-03-04T03:09:24.845Z,27.60
2023-03-04T03:11:52.610Z,27.10
2023-03-04T03:14:20.383Z,25.70
2023-03-04T03:16:48.030Z,26.50
2023-03-04T03:19:15.791Z,26.95
2023-03-04T03:21:43.512Z,25.73
2023-03-04T03:24:11.192Z,25.48
2023-03-04T03:26:40.983Z,24.85
2023-03-04T03:29:08.725Z,26.37
2023-03-04T03:31:36.460Z,24.35
2023-03-04T03:34:04.131Z,25.58
2023-03-04T03:36:32.038Z,23.85
2023-03-04T03:38:59.882Z,23.85
2023-03-04T03:41:27.534Z,25.58
2023-03-04T03:43:55.183Z,25.55
2023-03-04T03:46:22.806Z,27.85
2023-03-04T03:48:50.448Z,26.00
2023-03-04T03:51:18.112Z,24.85
2023-03-04T03:53:45.851Z,25.37
2023-03-04T03:56:13.556Z,26.52
2023-03-04T03:58:41.247Z,25.35
2023-03-04T04:01:10.323Z,25.90
2023-03-04T04:03:38.032Z,24.08
2023-03-04T04:06:05.824Z,26.25
2023-03-04T04:08:34.522Z,25.08
2023-03-04T04:11:02.193Z,25.58
2023-03-04T04:13:29.811Z,24.25
2023-03-04T04:15:57.473Z,25.83
2023-03-04T04:18:26.888Z,25.83
2023-03-04T04:20:54.942Z,24.08
2023-03-04T04:23:22.964Z,27.23
2023-03-04T04:25:50.734Z,24.40
2023-03-04T04:28:18.394Z,26.90
2023-03-04T04:30:46.091Z,23.75
2023-03-04T04:33:13.754Z,23.27
2023-03-04T04:35:41.460Z,26.10
2023-03-04T04:38:09.889Z,26.98
2023-03-04T04:40:38.211Z,25.92
2023-03-04T04:43:05.888Z,25.98
2023-03-04T04:45:33.657Z,24.12
2023-03-04T04:48:01.420Z,25.40
2023-03-04T04:50:32.550Z,25.00
2023-03-04T04:53:00.583Z,26.17
2023-03-04T04:55:28.934Z,25.27
2023-03-04T04:57:56.575Z,27.42
2023-03-04T05:00:24.200Z,25.83
2023-03-04T05:02:51.947Z,26.20
2023-03-04T05:05:19.649Z,24.83
2023-03-04T05:07:47.329Z,25.65
2023-03-04T05:10:15.052Z,23.90
2023-03-04T05:12:42.678Z,26.33
2023-03-04T05:15:10.630Z,25.35
2023-03-04T05:17:38.363Z,25.83
2023-03-04T05:20:08.254Z,26.87
2023-03-04T05:22:36.153Z,27.15
2023-03-04T05:25:04.656Z,26.80
2023-03-04T05:27:32.389Z,26.48
2023-03-04T05:30:03.166Z,25.77
2023-03-04T05:32:30.854Z,28.15
2023-03-04T05:34:58.567Z,26.67
2023-03-04T05:37:26.254Z,30.52
2023-03-04T05:39:53.871Z,26.20
2023-03-04T05:42:21.600Z,27.77
2023-03-04T05:44:49.314Z,26.27
2023-03-04T05:47:17.333Z,25.30
2023-03-04T05:49:45.721Z,26.05
2023-03-04T05:52:13.399Z,25.83
2023-03-04T05:54:41.073Z,26.27
2023-03-04T05:57:08.794Z,30.05
2023-03-04T05:59:36.580Z,26.58
2023-03-04T06:02:04.389Z,25.20
2023-03-04T06:04:32.253Z,25.33
2023-03-04T06:06:59.906Z,27.15
2023-03-04T06:09:27.613Z,31.48
2023-03-04T06:11:55.285Z,27.77
2023-03-04T06:14:23.098Z,27.20
2023-03-04T06:16:50.877Z,31.42
2023-03-04T06:19:18.684Z,29.92
2023-03-04T06:21:46.388Z,34.80
2023-03-04T06:24:14.283Z,30.42
2023-03-04T06:26:41.950Z,30.85
2023-03-04T06:29:09.657Z,29.83
2023-03-04T06:31:37.391Z,32.60
2023-03-04T06:34:05.125Z,31.35
2023-03-04T06:36:32.769Z,34.95
2023-03-04T06:39:00.444Z,34.58
2023-03-04T06:41:28.125Z,31.52
2023-03-04T06:43:56.039Z,31.95
2023-03-04T06:46:24.261Z,31.83
2023-03-04T06:48:52.033Z,34.40
2023-03-04T06:51:20.823Z,31.67
2023-03-04T06:53:48.555Z,34.67
2023-03-04T06:56:19.519Z,37.80
2023-03-04T06:58:47.588Z,34.72
2023-03-04T07:01:27.241Z,34.05
2023-03-04T07:03:56.273Z,31.92
2023-03-04T07:06:27.179Z,31.80
2023-03-04T07:08:55.883Z,35.38
2023-03-04T07:11:24.461Z,31.60
2023-03-04T07:13:52.696Z,32.45
2023-03-04T07:16:23.278Z,33.67
2023-03-04T07:18:51.498Z,31.33
2023-03-04T07:21:19.965Z,29.77
2023-03-04T07:23:48.053Z,32.17
2023-03-04T07:26:15.720Z,30.23
2023-03-04T07:28:44.500Z,34.13
2023-03-04T07:31:12.893Z,32.13
2023-03-04T07:33:40.590Z,34.25
2023-03-04T07:36:08.466Z,36.90
2023-03-04T07:38:36.247Z,37.78
2023-03-04T07:41:04.489Z,36.13
2023-03-04T07:43:32.220Z,33.05
2023-03-04T07:46:02.863Z,30.62
2023-03-04T07:48:30.762Z,32.60
2023-03-04T07:51:21.830Z,33.00
2023-03-04T07:53:55.390Z,29.17
2023-03-04T07:56:26.311Z,30.17
2023-03-04T07:58:57.449Z,34.03
2023-03-04T08:01:28.915Z,32.50
2023-03-04T08:03:56.781Z,30.17
2023-03-04T08:06:25.301Z,30.37
2023-03-04T08:09:01.241Z,30.10
2023-03-04T08:11:30.523Z,34.85
2023-03-04T08:13:58.401Z,30.45
2023-03-04T08:16:27.040Z,30.02
2023-03-04T08:18:57.295Z,32.30
2023-03-04T08:21:26.570Z,31.85
2023-03-04T08:23:55.044Z,33.60
2023-03-04T08:26:26.645Z,29.42
2023-03-04T08:28:55.819Z,31.67
2023-03-04T08:31:23.903Z,29.65
2023-03-04T08:33:52.432Z,28.10
2023-03-04T08:36:20.400Z,30.83
2023-03-04T08:38:48.154Z,27.90
2023-03-04T08:41:16.708Z,29.60
2023-03-04T08:43:45.108Z,31.42
2023-03-04T08:46:13.271Z,29.83
2023-03-04T08:48:41.019Z,30.67
2023-03-04T08:51:11.516Z,28.02
2023-03-04T08:53:39.910Z,30.17
2023-03-04T08:56:08.354Z,28.15
2023-03-04T08:58:36.293Z,29.98
2023-03-04T09:01:05.393Z,28.27
2023-03-04T09:03:33.258Z,28.83
2023-03-04T09:06:04.016Z,29.42
2023-03-04T09:08:32.606Z,30.73
2023-03-04T09:11:00.861Z,27.73
2023-03-04T09:13:30.642Z,31.40
2023-03-04T09:15:59.376Z,31.58
2023-03-04T09:18:28.078Z,31.30
2023-03-04T09:20:56.096Z,29.17
2023-03-04T09:23:24.044Z,31.30
2023-03-04T09:25:52.056Z,30.70
2023-03-04T09:28:20.821Z,31.27
2023-03-04T09:30:48.695Z,29.98
2023-03-04T09:33:16.415Z,30.67
2023-03-04T09:35:44.625Z,29.58
2023-03-04T09:38:12.320Z,27.67
2023-03-04T09:40:49.624Z,30.70
2023-03-04T09:43:31.247Z,29.98
2023-03-04T09:46:04.022Z,31.90
2023-03-04T09:48:45.952Z,28.75
2023-03-04T09:51:41.151Z,31.37
2023-03-04T09:54:28.880Z,30.80
2023-03-04T09:57:07.847Z,29.37
2023-03-04T09:59:48.266Z,30.23
2023-03-04T10:02:33.747Z,28.55
2023-03-04T10:05:06.987Z,30.37
2023-03-04T10:07:39.662Z,29.50
2023-03-04T10:10:17.925Z,29.85
2023-03-04T10:12:50.715Z,35.85
2023-03-04T10:15:24.528Z,31.15
2023-03-04T10:18:01.751Z,31.90
2023-03-04T10:20:45.267Z,30.58
2023-03-04T10:23:19.556Z,31.10
2023-03-04T10:25:48.051Z,41.50
2023-03-04T10:28:21.617Z,32.25
2023-03-04T10:31:13.106Z,31.42
2023-03-04T10:33:42.456Z,30.37
2023-03-04T10:36:22.786Z,32.63
2023-03-04T10:38:54.962Z,32.08
2023-03-04T10:41:27.158Z,30.95
2023-03-04T10:44:03.659Z,40.63
2023-03-04T10:46:32.936Z,33.20
2023-03-04T10:49:01.115Z,32.75
2023-03-04T10:51:30.617Z,32.15
2023-03-04T10:54:17.730Z,34.40
2023-03-04T10:56:57.103Z,32.88
2023-03-04T10:59:34.794Z,33.70
2023-03-04T11:02:15.340Z,31.17
2023-03-04T11:04:43.167Z,32.08
2023-03-04T11:07:12.182Z,32.20
2023-03-04T11:09:41.385Z,31.70
2023-03-04T11:12:17.946Z,34.25
2023-03-04T11:14:54.937Z,33.65
2023-03-04T11:17:41.785Z,32.85
2023-03-04T11:20:27.839Z,33.15
2023-03-04T11:22:57.995Z,33.88
2023-03-04T11:25:33.871Z,32.35
2023-03-04T11:28:08.402Z,32.00
2023-03-04T11:30:56.224Z,35.67
2023-03-04T11:33:37.272Z,31.98
2023-03-04T11:36:23.543Z,34.78
2023-03-04T11:38:52.988Z,34.92
2023-03-04T11:41:24.787Z,34.60
2023-03-04T11:43:52.626Z,34.67
2023-03-04T11:46:50.636Z,35.13
2023-03-04T11:49:33.551Z,34.03
2023-03-04T11:52:50.854Z,33.55
2023-03-04T11:55:44.233Z,28.17
2023-03-04T11:58:30.393Z,32.80
2023-03-04T12:01:16.325Z,26.90
2023-03-04T12:04:06.149Z,31.48
2023-03-04T12:06:45.208Z,31.67
2023-03-04T12:09:34.268Z,33.25
2023-03-04T12:12:28.209Z,27.62
2023-03-04T12:14:55.807Z,32.22
2023-03-04T12:17:36.335Z,33.20
2023-03-04T12:20:22.967Z,33.28
2023-03-04T12:23:12.886Z,31.45
2023-03-04T12:26:11.255Z,30.90
2023-03-04T12:28:41.682Z,29.10
2023-03-04T12:31:27.493Z,28.00
2023-03-04T12:34:10.040Z,29.40
2023-03-04T12:36:43.246Z,28.75
2023-03-04T12:39:20.418Z,27.85
2023-03-04T12:41:50.766Z,31.20
2023-03-04T12:44:20.338Z,25.30
2023-03-04T12:46:51.223Z,31.48
2023-03-04T12:49:35.833Z,29.00
2023-03-04T12:52:40.583Z,31.17
2023-03-04T12:55:18.419Z,28.38
2023-03-04T12:57:47.060Z,30.58
2023-03-04T13:00:48.081Z,29.85
2023-03-04T13:03:24.659Z,30.35
2023-03-04T13:06:05.224Z,31.48
2023-03-04T13:09:08.477Z,30.10
2023-03-04T13:12:07.512Z,31.87
2023-03-04T13:14:35.849Z,32.40
2023-03-04T13:17:39.888Z,32.55
2023-03-04T13:20:22.200Z,35.17
2023-03-04T13:22:59.905Z,34.00
2023-03-04T13:25:43.423Z,33.33
2023-03-04T13:28:11.045Z,28.95
2023-03-04T13:30:41.418Z,31.40
2023-03-04T13:33:12.212Z,30.60
2023-03-04T13:36:03.005Z,29.95
2023-03-04T13:38:35.422Z,26.27
2023-03-04T13:41:06.124Z,28.08
2023-03-04T13:43:41.134Z,27.00
2023-03-04T13:46:21.188Z,26.33
2023-03-04T13:48:51.800Z,26.15
2023-03-04T13:51:44.148Z,32.40
2023-03-04T13:54:16.988Z,34.80
2023-03-04T13:56:48.910Z,33.78
2023-03-04T13:59:43.282Z,31.62
2023-03-04T14:02:23.203Z,32.08
2023-03-04T14:05:02.356Z,31.50
2023-03-04T14:07:38.154Z,32.47
2023-03-04T14:10:24.358Z,31.98
2023-03-04T14:12:59.120Z,32.17
2023-03-04T14:15:31.756Z,29.33
2023-03-04T14:18:02.174Z,32.17
2023-03-04T14:20:35.159Z,31.37
2023-03-04T14:23:05.814Z,32.33
2023-03-04T14:25:36.926Z,33.92
2023-03-04T14:28:13.443Z,33.17
2023-03-04T14:30:52.501Z,32.35
2023-03-04T14:33:24.220Z,33.65
2023-03-04T14:35:54.924Z,32.72
2023-03-04T14:38:27.474Z,33.15
2023-03-04T14:41:04.246Z,32.75
2023-03-04T14:43:38.411Z,32.20
2023-03-04T14:46:13.509Z,33.35
2023-03-04T14:48:47.085Z,32.53
2023-03-04T14:51:37.401Z,33.17
2023-03-04T14:54:05.686Z,32.33
2023-03-04T14:56:36.711Z,32.40
2023-03-04T14:59:04.530Z,34.78
2023-03-04T15:01:36.777Z,32.70
2023-03-04T15:04:09.057Z,32.22
2023-03-04T15:06:40.706Z,33.30
2023-03-04T15:09:29.180Z,31.52
2023-03-04T15:12:07.540Z,33.20
2023-03-04T15:14:55.323Z,33.25
2023-03-04T15:17:33.964Z,32.85
2023-03-04T15:20:07.441Z,35.80
2023-03-04T15:22:36.822Z,33.78
2023-03-04T15:25:04.988Z,33.80
2023-03-04T15:27:32.809Z,31.73
2023-03-04T15:30:02.714Z,33.92
2023-03-04T15:32:31.043Z,31.40
2023-03-04T15:34:58.834Z,33.42
2023-03-04T15:37:29.867Z,33.42
2023-03-04T15:39:59.095Z,32.00
2023-03-04T15:42:26.944Z,31.02
2023-03-04T15:44:54.680Z,31.65
2023-03-04T15:47:22.373Z,33.58
2023-03-04T15:49:50.137Z,32.72
2023-03-04T15:52:22.502Z,31.35
2023-03-04T15:54:51.139Z,32.25
2023-03-04T15:57:25.981Z,33.35
2023-03-04T15:59:54.602Z,32.40
2023-03-04T16:02:25.028Z,32.53
2023-03-04T16:04:52.758Z,31.73
2023-03-04T16:07:30.836Z,33.60
2023-03-04T16:10:03.424Z,33.00
2023-03-04T16:12:31.463Z,33.15
2023-03-04T16:14:59.316Z,32.00
2023-03-04T16:17:27.076Z,34.05
2023-03-04T16:19:54.742Z,33.40
2023-03-04T16:22:30.386Z,32.83
2023-03-04T16:24:58.130Z,32.65
2023-03-04T16:27:27.735Z,32.35
2023-03-04T16:29:55.441Z,32.47
2023-03-04T16:32:23.221Z,33.92
2023-03-04T16:34:51.513Z,31.73
2023-03-04T16:37:21.412Z,34.08
2023-03-04T16:39:50.501Z,31.90
2023-03-04T16:42:23.089Z,32.80
2023-03-04T16:44:51.316Z,33.88
2023-03-04T16:47:19.123Z,31.37
2023-03-04T16:49:49.843Z,32.28
2023-03-04T16:52:33.138Z,31.87
2023-03-04T16:55:01.532Z,32.95
2023-03-04T16:57:29.789Z,32.38
2023-03-04T16:59:57.690Z,32.38
2023-03-04T17:02:29.084Z,30.88
2023-03-04T17:04:57.672Z,31.67
2023-03-04T17:07:25.399Z,30.65
2023-03-04T17:09:53.150Z,28.85
2023-03-04T17:12:20.893Z,30.05
2023-03-04T17:14:48.647Z,29.87
2023-03-04T17:17:18.387Z,30.75
2023-03-04T17:19:46.387Z,30.83
2023-03-04T17:22:14.181Z,29.58
2023-03-04T17:24:41.876Z,28.75
2023-03-04T17:27:09.852Z,30.60
2023-03-04T17:29:37.594Z,27.83
2023-03-04T17:32:05.614Z,29.50
2023-03-04T17:34:33.771Z,27.87
2023-03-04T17:37:01.535Z,28.65
2023-03-04T17:39:29.286Z,29.00
2023-03-04T17:41:57.824Z,27.05
2023-03-04T17:44:25.666Z,26.52
2023-03-04T17:46:53.427Z,28.65
2023-03-04T17:49:21.371Z,29.48
2023-03-04T17:51:49.282Z,32.35
2023-03-04T17:54:17.574Z,31.85
2023-03-04T17:56:45.626Z,30.02
2023-03-04T17:59:16.161Z,28.60
2023-03-04T18:01:46.218Z,32.22
2023-03-04T18:04:15.637Z,30.73
2023-03-04T18:06:44.438Z,31.40
2023-03-04T18:09:12.214Z,30.60
2023-03-04T18:11:41.656Z,31.70
2023-03-04T18:14:09.409Z,30.90
2023-03-04T18:16:37.143Z,30.92
2023-03-04T18:19:06.832Z,31.23
2023-03-04T18:21:34.636Z,30.77
2023-03-04T18:24:02.886Z,25.02
2023-03-04T18:26:30.843Z,23.98
2023-03-04T18:28:59.086Z,19.58
2023-03-04T18:31:31.702Z,18.12
2023-03-04T18:34:01.862Z,16.83
2023-03-04T18:36:30.688Z,16.90
2023-03-04T18:39:00.468Z,15.52
2023-03-04T18:41:28.489Z,15.68
2023-03-04T18:43:56.529Z,17.35
2023-03-04T18:46:43.830Z,16.05
2023-03-04T18:49:12.908Z,15.45
2023-03-04T18:51:40.706Z,14.43
2023-03-04T18:54:08.490Z,15.18
2023-03-04T18:56:49.944Z,15.43
2023-03-04T18:59:25.510Z,15.00
2023-03-04T19:01:54.267Z,15.60
2023-03-04T19:04:27.466Z,15.60
2023-03-04T19:06:55.495Z,15.18
2023-03-04T19:09:23.246Z,14.77
2023-03-04T19:11:50.939Z,14.95
2023-03-04T19:14:18.707Z,17.25
2023-03-04T19:16:46.423Z,15.82
2023-03-04T19:19:14.376Z,17.45
2023-03-04T19:21:43.018Z,16.42
2023-03-04T19:24:10.716Z,17.02
2023-03-04T19:26:38.417Z,17.10
2023-03-04T19:29:07.453Z,16.02
2023-03-04T19:31:35.342Z,15.32
2023-03-04T19:34:03.016Z,17.67
2023-03-04T19:36:31.749Z,16.00
2023-03-04T19:39:00.093Z,17.45
2023-03-04T19:41:28.161Z,17.15
2023-03-04T19:43:55.869Z,17.25
2023-03-04T19:46:23.658Z,17.90
2023-03-04T19:48:51.513Z,19.33
2023-03-04T19:51:22.005Z,17.85
2023-03-04T19:53:51.953Z,18.17
2023-03-04T19:56:21.277Z,18.60
2023-03-04T19:58:49.585Z,17.83
2023-03-04T20:01:31.178Z,17.25
2023-03-04T20:04:04.526Z,17.58
2023-03-04T20:06:32.745Z,18.75
2023-03-04T20:09:01.544Z,19.60
2023-03-04T20:11:30.465Z,19.98
2023-03-04T20:13:59.697Z,18.55
2023-03-04T20:16:28.280Z,18.42
2023-03-04T20:18:58.980Z,18.58
2023-03-04T20:21:33.112Z,19.25
2023-03-04T20:24:02.586Z,20.12
2023-03-04T20:26:31.307Z,18.75
2023-03-04T20:28:59.749Z,18.40
2023-03-04T20:31:30.804Z,18.25
2023-03-04T20:34:00.189Z,19.73
2023-03-04T20:36:30.068Z,19.60
2023-03-04T20:39:02.569Z,16.85
2023-03-04T20:41:32.245Z,18.55
2023-03-04T20:44:00.086Z,17.05
2023-03-04T20:46:35.858Z,17.92
2023-03-04T20:49:07.210Z,17.67
2023-03-04T20:51:35.944Z,17.62
2023-03-04T20:54:04.728Z,17.25
2023-03-04T20:56:32.760Z,17.25
2023-03-04T20:59:02.814Z,19.65
2023-03-04T21:01:32.153Z,17.45
2023-03-04T21:04:01.075Z,17.08
2023-03-04T21:06:32.210Z,18.17
2023-03-04T21:09:09.358Z,17.75
2023-03-04T21:11:41.658Z,18.45
2023-03-04T21:14:15.384Z,17.92
2023-03-04T21:16:44.220Z,18.35
2023-03-04T21:19:17.273Z,19.08
2023-03-04T21:21:46.118Z,18.42
2023-03-04T21:24:16.730Z,17.75
2023-03-04T21:26:46.398Z,19.52
2023-03-04T21:29:18.819Z,19.05
2023-03-04T21:31:52.882Z,19.12
2023-03-04T21:34:34.715Z,18.80
2023-03-04T21:37:03.433Z,19.67
2023-03-04T21:39:32.023Z,19.08
2023-03-04T21:42:00.886Z,20.10
2023-03-04T21:44:45.313Z,19.75
2023-03-04T21:47:16.121Z,17.10
2023-03-04T21:49:43.877Z,19.17
2023-03-04T21:52:11.579Z,19.10
2023-03-04T21:54:39.326Z,18.23
2023-03-04T21:57:06.991Z,19.60
2023-03-04T21:59:34.723Z,18.58
2023-03-04T22:02:03.053Z,17.95
2023-03-04T22:04:30.941Z,18.27
2023-03-04T22:06:58.647Z,18.62
2023-03-04T22:09:26.559Z,17.95
2023-03-04T22:11:54.268Z,18.75
2023-03-04T22:14:22.119Z,17.35
2023-03-04T22:16:55.818Z,17.37
2023-03-04T22:19:31.295Z,18.30
2023-03-04T22:22:00.200Z,19.67
2023-03-04T22:24:28.001Z,17.17
2023-03-04T22:26:57.921Z,19.83
2023-03-04T22:29:25.804Z,18.08
2023-03-04T22:31:53.484Z,17.23
2023-03-04T22:34:21.201Z,18.23
2023-03-04T22:36:50.369Z,18.20
2023-03-04T22:39:24.051Z,18.95
2023-03-04T22:41:51.832Z,18.23
2023-03-04T22:44:19.988Z,19.33
2023-03-04T22:46:47.730Z,17.65
2023-03-04T22:49:15.877Z,17.60
2023-03-04T22:51:45.399Z,17.45
2023-03-04T22:54:18.401Z,17.42
2023-03-04T22:56:46.622Z,16.73
2023-03-04T22:59:15.106Z,17.80
2023-03-04T23:01:43.053Z,16.45
2023-03-04T23:04:10.875Z,16.83
2023-03-04T23:06:38.795Z,15.63
2023-03-04T23:09:06.743Z,15.80
2023-03-04T23:11:39.937Z,16.85
2023-03-04T23:14:09.128Z,16.37
2023-03-04T23:16:42.071Z,15.65
2023-03-04T23:19:14.051Z,15.95
2023-03-04T23:21:42.422Z,17.33
2023-03-04T23:24:12.305Z,16.08
2023-03-04T23:26:41.650Z,17.25
2023-03-04T23:29:12.554Z,15.82
2023-03-04T23:31:40.296Z,17.33
2023-03-04T23:34:08.160Z,16.70
2023-03-04T23:36:37.357Z,16.62
2023-03-04T23:39:07.599Z,14.80
2023-03-04T23:41:36.650Z,16.25
2023-03-04T23:44:05.181Z,14.20
2023-03-04T23:46:32.987Z,16.08
2023-03-04T23:49:00.655Z,15.65
2023-03-04T23:51:30.347Z,16.02
2023-03-04T23:53:59.341Z,18.77
2023-03-04T23:56:30.170Z,16.33
2023-03-04T23:58:59.434Z,18.27
